sensor_id;sensor_type;location;lat;lon;timestamp;P1;durP1;ratioP1;P2;durP2;ratioP2
61785;SDS011;47692;53.714;11.372;2022-08-02T00:02:11;5.57;;;1.50;;
61785;SDS011;47692;53.714;11.372;2022-08-02T00:04:36;4.18;;;1.52;;
61785;SDS011;47692;53.714;11.372;2022-08-02T00:07:02;11.98;;;1.88;;
61785;SDS011;47692;53.714;11.372;2022-08-02T00:09:27;4.03;;;1.52;;
61785;SDS011;47692;53.714;11.372;2022-08-02T00:11:53;8.07;;;1.42;;
61785;SDS011;47692;53.714;11.372;2022-08-02T00:14:18;8.00;;;1.92;;
61785;SDS011;47692;53.714;11.372;2022-08-02T00:16:44;8.10;;;1.55;;
61785;SDS011;47692;53.714;11.372;2022-08-02T00:19:09;9.80;;;2.05;;
61785;SDS011;47692;53.714;11.372;2022-08-02T00:21:34;8.43;;;1.98;;
61785;SDS011;47692;53.714;11.372;2022-08-02T00:24:00;5.97;;;2.00;;
61785;SDS011;47692;53.714;11.372;2022-08-02T00:26:25;3.28;;;1.60;;
61785;SDS011;47692;53.714;11.372;2022-08-02T00:28:51;8.07;;;2.22;;
61785;SDS011;47692;53.714;11.372;2022-08-02T00:31:16;4.45;;;1.55;;
61785;SDS011;47692;53.714;11.372;2022-08-02T00:33:41;6.07;;;1.65;;
61785;SDS011;47692;53.714;11.372;2022-08-02T00:36:07;5.10;;;1.70;;
61785;SDS011;47692;53.714;11.372;2022-08-02T00:38:32;5.88;;;1.60;;
61785;SDS011;47692;53.714;11.372;2022-08-02T00:40:57;7.53;;;2.13;;
61785;SDS011;47692;53.714;11.372;2022-08-02T00:43:23;7.18;;;2.00;;
61785;SDS011;47692;53.714;11.372;2022-08-02T00:45:48;5.88;;;1.83;;
61785;SDS011;47692;53.714;11.372;2022-08-02T00:48:14;8.43;;;2.20;;
61785;SDS011;47692;53.714;11.372;2022-08-02T00:50:39;7.15;;;1.83;;
61785;SDS011;47692;53.714;11.372;2022-08-02T00:53:05;6.78;;;1.75;;
61785;SDS011;47692;53.714;11.372;2022-08-02T00:55:33;8.38;;;1.90;;
61785;SDS011;47692;53.714;11.372;2022-08-02T00:57:59;4.70;;;1.55;;
61785;SDS011;47692;53.714;11.372;2022-08-02T01:00:24;6.00;;;1.77;;
61785;SDS011;47692;53.714;11.372;2022-08-02T01:02:49;7.78;;;1.92;;
61785;SDS011;47692;53.714;11.372;2022-08-02T01:05:16;5.63;;;1.70;;
61785;SDS011;47692;53.714;11.372;2022-08-02T01:07:41;4.72;;;1.50;;
61785;SDS011;47692;53.714;11.372;2022-08-02T01:10:07;4.80;;;1.60;;
61785;SDS011;47692;53.714;11.372;2022-08-02T01:12:33;3.15;;;1.38;;
61785;SDS011;47692;53.714;11.372;2022-08-02T01:15:02;3.15;;;1.42;;
61785;SDS011;47692;53.714;11.372;2022-08-02T01:17:40;4.38;;;1.50;;
61785;SDS011;47692;53.714;11.372;2022-08-02T01:20:31;6.00;;;1.55;;
61785;SDS011;47692;53.714;11.372;2022-08-02T01:29:16;9.30;;;1.70;;
61785;SDS011;47692;53.714;11.372;2022-08-02T01:31:53;4.25;;;1.80;;
61785;SDS011;47692;53.714;11.372;2022-08-02T01:34:28;5.53;;;1.50;;
61785;SDS011;47692;53.714;11.372;2022-08-02T01:37:02;5.45;;;2.00;;
61785;SDS011;47692;53.714;11.372;2022-08-02T01:39:35;4.68;;;1.60;;
61785;SDS011;47692;53.714;11.372;2022-08-02T01:42:04;5.75;;;1.90;;
61785;SDS011;47692;53.714;11.372;2022-08-02T01:44:32;5.30;;;1.73;;
61785;SDS011;47692;53.714;11.372;2022-08-02T01:47:01;6.80;;;1.90;;
61785;SDS011;47692;53.714;11.372;2022-08-02T01:49:31;7.63;;;1.90;;
61785;SDS011;47692;53.714;11.372;2022-08-02T01:51:59;5.80;;;1.88;;
61785;SDS011;47692;53.714;11.372;2022-08-02T01:54:46;4.10;;;1.88;;
61785;SDS011;47692;53.714;11.372;2022-08-02T01:57:14;7.20;;;2.42;;
61785;SDS011;47692;53.714;11.372;2022-08-02T01:59:41;6.32;;;1.80;;
61785;SDS011;47692;53.714;11.372;2022-08-02T02:02:09;10.77;;;2.30;;
61785;SDS011;47692;53.714;11.372;2022-08-02T02:04:36;4.22;;;1.92;;
61785;SDS011;47692;53.714;11.372;2022-08-02T02:07:03;7.93;;;1.98;;
61785;SDS011;47692;53.714;11.372;2022-08-02T02:09:31;6.10;;;2.20;;
61785;SDS011;47692;53.714;11.372;2022-08-02T02:12:01;4.10;;;1.92;;
61785;SDS011;47692;53.714;11.372;2022-08-02T02:14:28;6.00;;;1.85;;
61785;SDS011;47692;53.714;11.372;2022-08-02T02:16:54;3.15;;;1.48;;
61785;SDS011;47692;53.714;11.372;2022-08-02T02:19:22;5.45;;;1.83;;
61785;SDS011;47692;53.714;11.372;2022-08-02T02:21:49;4.82;;;1.65;;
61785;SDS011;47692;53.714;11.372;2022-08-02T02:24:15;5.30;;;1.80;;
61785;SDS011;47692;53.714;11.372;2022-08-02T02:26:41;4.13;;;1.33;;
61785;SDS011;47692;53.714;11.372;2022-08-02T02:29:08;4.90;;;1.70;;
61785;SDS011;47692;53.714;11.372;2022-08-02T02:31:37;3.28;;;1.63;;
61785;SDS011;47692;53.714;11.372;2022-08-02T02:34:04;3.80;;;1.30;;
61785;SDS011;47692;53.714;11.372;2022-08-02T02:36:35;7.05;;;1.77;;
61785;SDS011;47692;53.714;11.372;2022-08-02T02:39:03;4.70;;;2.03;;
61785;SDS011;47692;53.714;11.372;2022-08-02T02:41:30;4.32;;;1.60;;
61785;SDS011;47692;53.714;11.372;2022-08-02T02:43:57;5.38;;;1.55;;
61785;SDS011;47692;53.714;11.372;2022-08-02T02:46:25;10.57;;;2.00;;
61785;SDS011;47692;53.714;11.372;2022-08-02T02:48:53;7.22;;;1.90;;
61785;SDS011;47692;53.714;11.372;2022-08-02T02:51:19;5.57;;;1.60;;
61785;SDS011;47692;53.714;11.372;2022-08-02T02:53:46;4.55;;;1.70;;
61785;SDS011;47692;53.714;11.372;2022-08-02T02:56:14;6.80;;;1.85;;
61785;SDS011;47692;53.714;11.372;2022-08-02T02:58:41;5.28;;;1.50;;
61785;SDS011;47692;53.714;11.372;2022-08-02T03:01:07;5.70;;;2.13;;
61785;SDS011;47692;53.714;11.372;2022-08-02T03:03:52;5.95;;;2.33;;
61785;SDS011;47692;53.714;11.372;2022-08-02T03:06:18;5.63;;;1.88;;
61785;SDS011;47692;53.714;11.372;2022-08-02T03:08:44;5.43;;;2.20;;
61785;SDS011;47692;53.714;11.372;2022-08-02T03:11:10;5.03;;;1.80;;
61785;SDS011;47692;53.714;11.372;2022-08-02T03:13:37;3.70;;;2.28;;
61785;SDS011;47692;53.714;11.372;2022-08-02T03:16:03;13.45;;;2.45;;
61785;SDS011;47692;53.714;11.372;2022-08-02T03:18:30;3.63;;;1.73;;
61785;SDS011;47692;53.714;11.372;2022-08-02T03:21:02;4.15;;;1.95;;
61785;SDS011;47692;53.714;11.372;2022-08-02T03:23:30;6.70;;;2.03;;
61785;SDS011;47692;53.714;11.372;2022-08-02T03:25:56;4.78;;;1.67;;
61785;SDS011;47692;53.714;11.372;2022-08-02T03:28:21;5.57;;;1.80;;
61785;SDS011;47692;53.714;11.372;2022-08-02T03:30:47;5.28;;;1.65;;
61785;SDS011;47692;53.714;11.372;2022-08-02T03:33:13;5.32;;;2.10;;
61785;SDS011;47692;53.714;11.372;2022-08-02T03:35:39;6.10;;;1.80;;
61785;SDS011;47692;53.714;11.372;2022-08-02T03:38:06;6.15;;;1.90;;
61785;SDS011;47692;53.714;11.372;2022-08-02T03:40:32;4.90;;;1.90;;
61785;SDS011;47692;53.714;11.372;2022-08-02T03:43:00;3.35;;;1.98;;
61785;SDS011;47692;53.714;11.372;2022-08-02T03:45:26;5.43;;;1.55;;
61785;SDS011;47692;53.714;11.372;2022-08-02T03:47:53;6.22;;;2.05;;
61785;SDS011;47692;53.714;11.372;2022-08-02T03:50:19;4.70;;;1.60;;
61785;SDS011;47692;53.714;11.372;2022-08-02T03:52:47;2.70;;;1.48;;
61785;SDS011;47692;53.714;11.372;2022-08-02T03:55:12;3.33;;;1.75;;
61785;SDS011;47692;53.714;11.372;2022-08-02T03:57:39;8.68;;;2.00;;
61785;SDS011;47692;53.714;11.372;2022-08-02T04:00:06;4.53;;;2.10;;
61785;SDS011;47692;53.714;11.372;2022-08-02T04:02:32;6.53;;;1.83;;
61785;SDS011;47692;53.714;11.372;2022-08-02T04:04:57;4.72;;;2.00;;
61785;SDS011;47692;53.714;11.372;2022-08-02T04:07:22;4.25;;;2.10;;
61785;SDS011;47692;53.714;11.372;2022-08-02T04:09:48;5.70;;;1.67;;
61785;SDS011;47692;53.714;11.372;2022-08-02T04:12:13;3.45;;;1.58;;
61785;SDS011;47692;53.714;11.372;2022-08-02T04:14:38;10.40;;;2.38;;
61785;SDS011;47692;53.714;11.372;2022-08-02T04:17:06;3.45;;;1.65;;
61785;SDS011;47692;53.714;11.372;2022-08-02T04:22:13;5.07;;;1.88;;
61785;SDS011;47692;53.714;11.372;2022-08-02T04:24:59;4.30;;;2.08;;
61785;SDS011;47692;53.714;11.372;2022-08-02T04:27:27;4.78;;;2.08;;
61785;SDS011;47692;53.714;11.372;2022-08-02T04:29:54;8.40;;;2.72;;
61785;SDS011;47692;53.714;11.372;2022-08-02T04:32:21;4.72;;;1.77;;
61785;SDS011;47692;53.714;11.372;2022-08-02T04:34:47;4.90;;;1.73;;
61785;SDS011;47692;53.714;11.372;2022-08-02T04:37:13;5.18;;;2.00;;
61785;SDS011;47692;53.714;11.372;2022-08-02T04:39:42;7.28;;;2.10;;
61785;SDS011;47692;53.714;11.372;2022-08-02T04:42:07;3.78;;;1.70;;
61785;SDS011;47692;53.714;11.372;2022-08-02T04:44:33;10.05;;;3.17;;
61785;SDS011;47692;53.714;11.372;2022-08-02T04:46:59;5.05;;;2.42;;
61785;SDS011;47692;53.714;11.372;2022-08-02T04:49:29;4.75;;;2.10;;
61785;SDS011;47692;53.714;11.372;2022-08-02T04:51:55;6.15;;;2.25;;
61785;SDS011;47692;53.714;11.372;2022-08-02T04:54:20;5.05;;;2.03;;
61785;SDS011;47692;53.714;11.372;2022-08-02T04:56:45;8.75;;;2.45;;
61785;SDS011;47692;53.714;11.372;2022-08-02T04:59:11;6.95;;;2.40;;
61785;SDS011;47692;53.714;11.372;2022-08-02T05:01:36;7.30;;;2.28;;
61785;SDS011;47692;53.714;11.372;2022-08-02T05:04:03;4.97;;;2.50;;
61785;SDS011;47692;53.714;11.372;2022-08-02T05:06:29;9.40;;;2.30;;
61785;SDS011;47692;53.714;11.372;2022-08-02T05:08:55;6.68;;;1.83;;
61785;SDS011;47692;53.714;11.372;2022-08-02T05:11:21;5.82;;;2.55;;
61785;SDS011;47692;53.714;11.372;2022-08-02T05:13:48;13.55;;;2.50;;
61785;SDS011;47692;53.714;11.372;2022-08-02T05:16:14;7.10;;;2.50;;
61785;SDS011;47692;53.714;11.372;2022-08-02T05:18:39;6.72;;;2.40;;
61785;SDS011;47692;53.714;11.372;2022-08-02T05:21:04;10.50;;;2.70;;
61785;SDS011;47692;53.714;11.372;2022-08-02T05:23:29;7.47;;;2.40;;
61785;SDS011;47692;53.714;11.372;2022-08-02T05:25:55;10.40;;;2.90;;
61785;SDS011;47692;53.714;11.372;2022-08-02T05:28:20;5.55;;;2.30;;
61785;SDS011;47692;53.714;11.372;2022-08-02T05:30:46;9.48;;;2.35;;
61785;SDS011;47692;53.714;11.372;2022-08-02T05:33:11;8.40;;;2.67;;
61785;SDS011;47692;53.714;11.372;2022-08-02T05:35:36;9.52;;;2.53;;
61785;SDS011;47692;53.714;11.372;2022-08-02T05:38:02;6.68;;;2.50;;
61785;SDS011;47692;53.714;11.372;2022-08-02T05:40:27;7.82;;;2.50;;
61785;SDS011;47692;53.714;11.372;2022-08-02T05:42:53;7.53;;;2.83;;
61785;SDS011;47692;53.714;11.372;2022-08-02T05:45:19;6.78;;;2.42;;
61785;SDS011;47692;53.714;11.372;2022-08-02T05:47:44;9.88;;;2.40;;
61785;SDS011;47692;53.714;11.372;2022-08-02T05:50:10;8.88;;;2.30;;
61785;SDS011;47692;53.714;11.372;2022-08-02T05:52:40;5.65;;;2.42;;
61785;SDS011;47692;53.714;11.372;2022-08-02T06:00:32;6.45;;;1.98;;
61785;SDS011;47692;53.714;11.372;2022-08-02T06:05:40;5.57;;;1.98;;
61785;SDS011;47692;53.714;11.372;2022-08-02T06:08:13;7.63;;;2.20;;
61785;SDS011;47692;53.714;11.372;2022-08-02T06:10:39;10.02;;;2.13;;
61785;SDS011;47692;53.714;11.372;2022-08-02T06:13:12;8.30;;;2.20;;
61785;SDS011;47692;53.714;11.372;2022-08-02T06:15:40;8.20;;;2.30;;
61785;SDS011;47692;53.714;11.372;2022-08-02T06:18:06;5.97;;;2.17;;
61785;SDS011;47692;53.714;11.372;2022-08-02T06:20:32;2.88;;;1.90;;
61785;SDS011;47692;53.714;11.372;2022-08-02T06:23:00;5.78;;;1.98;;
61785;SDS011;47692;53.714;11.372;2022-08-02T06:25:27;7.40;;;1.67;;
61785;SDS011;47692;53.714;11.372;2022-08-02T06:27:53;11.93;;;2.45;;
61785;SDS011;47692;53.714;11.372;2022-08-02T06:30:19;5.70;;;1.98;;
61785;SDS011;47692;53.714;11.372;2022-08-02T06:32:45;7.00;;;1.98;;
61785;SDS011;47692;53.714;11.372;2022-08-02T06:35:15;10.38;;;2.13;;
61785;SDS011;47692;53.714;11.372;2022-08-02T06:37:43;4.07;;;1.48;;
61785;SDS011;47692;53.714;11.372;2022-08-02T06:42:51;4.07;;;1.80;;
61785;SDS011;47692;53.714;11.372;2022-08-02T06:45:27;6.68;;;2.10;;
61785;SDS011;47692;53.714;11.372;2022-08-02T06:47:52;9.68;;;1.35;;
61785;SDS011;47692;53.714;11.372;2022-08-02T06:50:18;8.35;;;1.60;;
61785;SDS011;47692;53.714;11.372;2022-08-02T06:52:43;7.72;;;1.55;;
61785;SDS011;47692;53.714;11.372;2022-08-02T06:55:09;9.18;;;1.50;;
61785;SDS011;47692;53.714;11.372;2022-08-02T06:57:34;4.20;;;1.55;;
61785;SDS011;47692;53.714;11.372;2022-08-02T07:00:00;2.95;;;1.13;;
61785;SDS011;47692;53.714;11.372;2022-08-02T07:02:28;4.15;;;1.13;;
61785;SDS011;47692;53.714;11.372;2022-08-02T07:04:53;4.93;;;1.52;;
61785;SDS011;47692;53.714;11.372;2022-08-02T07:07:19;4.05;;;1.20;;
61785;SDS011;47692;53.714;11.372;2022-08-02T07:09:44;5.55;;;1.05;;
61785;SDS011;47692;53.714;11.372;2022-08-02T07:12:10;7.43;;;1.45;;
61785;SDS011;47692;53.714;11.372;2022-08-02T07:14:35;4.82;;;1.25;;
61785;SDS011;47692;53.714;11.372;2022-08-02T07:17:00;5.07;;;1.30;;
61785;SDS011;47692;53.714;11.372;2022-08-02T07:19:26;5.97;;;1.38;;
61785;SDS011;47692;53.714;11.372;2022-08-02T07:21:51;4.57;;;1.30;;
61785;SDS011;47692;53.714;11.372;2022-08-02T07:24:17;6.45;;;1.35;;
61785;SDS011;47692;53.714;11.372;2022-08-02T07:26:42;6.90;;;1.30;;
61785;SDS011;47692;53.714;11.372;2022-08-02T07:29:07;6.55;;;1.42;;
61785;SDS011;47692;53.714;11.372;2022-08-02T07:31:33;6.40;;;1.67;;
61785;SDS011;47692;53.714;11.372;2022-08-02T07:33:58;4.25;;;1.40;;
61785;SDS011;47692;53.714;11.372;2022-08-02T07:36:24;3.47;;;1.40;;
61785;SDS011;47692;53.714;11.372;2022-08-02T07:38:49;8.80;;;2.13;;
61785;SDS011;47692;53.714;11.372;2022-08-02T07:41:15;4.90;;;1.45;;
61785;SDS011;47692;53.714;11.372;2022-08-02T07:43:40;8.38;;;1.58;;
61785;SDS011;47692;53.714;11.372;2022-08-02T07:46:06;6.88;;;1.50;;
61785;SDS011;47692;53.714;11.372;2022-08-02T07:48:31;4.55;;;1.30;;
61785;SDS011;47692;53.714;11.372;2022-08-02T07:50:57;5.55;;;1.40;;
61785;SDS011;47692;53.714;11.372;2022-08-02T07:53:22;7.20;;;1.80;;
61785;SDS011;47692;53.714;11.372;2022-08-02T07:55:49;6.72;;;1.73;;
61785;SDS011;47692;53.714;11.372;2022-08-02T07:58:15;6.28;;;1.42;;
61785;SDS011;47692;53.714;11.372;2022-08-02T08:00:41;5.30;;;1.23;;
61785;SDS011;47692;53.714;11.372;2022-08-02T08:03:07;7.95;;;1.40;;
61785;SDS011;47692;53.714;11.372;2022-08-02T08:05:32;5.95;;;1.25;;
61785;SDS011;47692;53.714;11.372;2022-08-02T08:07:58;7.10;;;1.58;;
61785;SDS011;47692;53.714;11.372;2022-08-02T08:10:23;7.35;;;1.45;;
61785;SDS011;47692;53.714;11.372;2022-08-02T08:12:49;7.63;;;1.50;;
61785;SDS011;47692;53.714;11.372;2022-08-02T08:15:14;2.63;;;1.10;;
61785;SDS011;47692;53.714;11.372;2022-08-02T08:17:39;4.70;;;1.20;;
61785;SDS011;47692;53.714;11.372;2022-08-02T08:20:05;9.48;;;2.08;;
61785;SDS011;47692;53.714;11.372;2022-08-02T08:22:31;2.47;;;1.00;;
61785;SDS011;47692;53.714;11.372;2022-08-02T08:24:56;5.60;;;1.50;;
61785;SDS011;47692;53.714;11.372;2022-08-02T08:27:21;3.90;;;1.10;;
61785;SDS011;47692;53.714;11.372;2022-08-02T08:29:47;2.70;;;1.10;;
61785;SDS011;47692;53.714;11.372;2022-08-02T08:32:13;7.13;;;1.38;;
61785;SDS011;47692;53.714;11.372;2022-08-02T08:34:38;3.97;;;1.20;;
61785;SDS011;47692;53.714;11.372;2022-08-02T08:37:04;4.43;;;1.33;;
61785;SDS011;47692;53.714;11.372;2022-08-02T08:39:30;10.57;;;1.45;;
61785;SDS011;47692;53.714;11.372;2022-08-02T08:41:55;3.78;;;1.02;;
61785;SDS011;47692;53.714;11.372;2022-08-02T08:44:21;8.40;;;1.63;;
61785;SDS011;47692;53.714;11.372;2022-08-02T08:46:47;6.53;;;1.40;;
61785;SDS011;47692;53.714;11.372;2022-08-02T08:49:46;6.05;;;1.02;;
61785;SDS011;47692;53.714;11.372;2022-08-02T08:52:08;5.00;;;1.27;;
61785;SDS011;47692;53.714;11.372;2022-08-02T08:54:35;5.00;;;1.13;;
61785;SDS011;47692;53.714;11.372;2022-08-02T08:57:05;2.10;;;1.00;;
61785;SDS011;47692;53.714;11.372;2022-08-02T08:59:30;7.45;;;1.13;;
61785;SDS011;47692;53.714;11.372;2022-08-02T09:01:56;7.30;;;2.72;;
61785;SDS011;47692;53.714;11.372;2022-08-02T09:04:22;4.38;;;1.30;;
61785;SDS011;47692;53.714;11.372;2022-08-02T09:06:48;5.10;;;1.25;;
61785;SDS011;47692;53.714;11.372;2022-08-02T09:09:13;5.30;;;1.38;;
61785;SDS011;47692;53.714;11.372;2022-08-02T09:11:39;11.27;;;1.30;;
61785;SDS011;47692;53.714;11.372;2022-08-02T09:14:04;4.55;;;1.00;;
61785;SDS011;47692;53.714;11.372;2022-08-02T09:16:33;7.47;;;1.98;;
61785;SDS011;47692;53.714;11.372;2022-08-02T09:19:02;5.88;;;1.40;;
61785;SDS011;47692;53.714;11.372;2022-08-02T09:21:41;2.17;;;0.88;;
61785;SDS011;47692;53.714;11.372;2022-08-02T09:24:17;3.85;;;1.00;;
61785;SDS011;47692;53.714;11.372;2022-08-02T09:26:44;4.68;;;1.13;;
61785;SDS011;47692;53.714;11.372;2022-08-02T09:29:11;3.75;;;1.15;;
61785;SDS011;47692;53.714;11.372;2022-08-02T09:31:36;4.07;;;0.82;;
61785;SDS011;47692;53.714;11.372;2022-08-02T09:34:02;4.40;;;1.00;;
61785;SDS011;47692;53.714;11.372;2022-08-02T09:36:35;3.03;;;0.65;;
61785;SDS011;47692;53.714;11.372;2022-08-02T09:39:04;2.45;;;0.73;;
61785;SDS011;47692;53.714;11.372;2022-08-02T09:41:32;5.55;;;0.80;;
61785;SDS011;47692;53.714;11.372;2022-08-02T09:43:59;7.05;;;0.95;;
61785;SDS011;47692;53.714;11.372;2022-08-02T09:46:28;3.97;;;0.88;;
61785;SDS011;47692;53.714;11.372;2022-08-02T09:48:55;3.75;;;0.77;;
61785;SDS011;47692;53.714;11.372;2022-08-02T09:51:28;2.95;;;0.70;;
61785;SDS011;47692;53.714;11.372;2022-08-02T09:54:05;2.05;;;0.50;;
61785;SDS011;47692;53.714;11.372;2022-08-02T09:57:06;2.22;;;0.77;;
61785;SDS011;47692;53.714;11.372;2022-08-02T09:59:26;2.15;;;0.70;;
61785;SDS011;47692;53.714;11.372;2022-08-02T10:01:53;3.30;;;0.68;;
61785;SDS011;47692;53.714;11.372;2022-08-02T10:04:20;2.92;;;0.70;;
61785;SDS011;47692;53.714;11.372;2022-08-02T10:06:48;1.98;;;0.60;;
61785;SDS011;47692;53.714;11.372;2022-08-02T10:09:14;1.27;;;0.50;;
61785;SDS011;47692;53.714;11.372;2022-08-02T10:11:41;2.15;;;0.55;;
61785;SDS011;47692;53.714;11.372;2022-08-02T10:14:07;2.17;;;0.60;;
61785;SDS011;47692;53.714;11.372;2022-08-02T10:16:37;2.72;;;0.75;;
61785;SDS011;47692;53.714;11.372;2022-08-02T10:19:05;5.37;;;0.73;;
61785;SDS011;47692;53.714;11.372;2022-08-02T10:24:13;0.90;;;0.45;;
61785;SDS011;47692;53.714;11.372;2022-08-02T10:26:41;0.73;;;0.43;;
61785;SDS011;47692;53.714;11.372;2022-08-02T10:29:08;2.78;;;0.45;;
61785;SDS011;47692;53.714;11.372;2022-08-02T10:31:39;2.00;;;0.65;;
61785;SDS011;47692;53.714;11.372;2022-08-02T10:34:09;3.40;;;0.70;;
61785;SDS011;47692;53.714;11.372;2022-08-02T10:36:37;2.83;;;0.55;;
61785;SDS011;47692;53.714;11.372;2022-08-02T10:39:05;2.72;;;0.70;;
61785;SDS011;47692;53.714;11.372;2022-08-02T10:44:20;3.58;;;0.60;;
61785;SDS011;47692;53.714;11.372;2022-08-02T10:46:50;1.83;;;0.55;;
61785;SDS011;47692;53.714;11.372;2022-08-02T10:49:16;5.68;;;0.98;;
61785;SDS011;47692;53.714;11.372;2022-08-02T10:54:28;3.10;;;0.65;;
61785;SDS011;47692;53.714;11.372;2022-08-02T10:56:58;6.50;;;1.05;;
61785;SDS011;47692;53.714;11.372;2022-08-02T11:01:52;1.83;;;0.70;;
61785;SDS011;47692;53.714;11.372;2022-08-02T11:09:31;1.75;;;0.70;;
61785;SDS011;47692;53.714;11.372;2022-08-02T11:14:26;1.40;;;0.60;;
61785;SDS011;47692;53.714;11.372;2022-08-02T11:19:20;3.38;;;0.90;;
61785;SDS011;47692;53.714;11.372;2022-08-02T11:22:00;5.15;;;1.00;;
61785;SDS011;47692;53.714;11.372;2022-08-02T11:24:35;5.63;;;0.90;;
61785;SDS011;47692;53.714;11.372;2022-08-02T11:27:03;2.13;;;0.60;;
61785;SDS011;47692;53.714;11.372;2022-08-02T11:29:36;3.60;;;0.80;;
61785;SDS011;47692;53.714;11.372;2022-08-02T11:32:15;9.57;;;0.88;;
61785;SDS011;47692;53.714;11.372;2022-08-02T11:34:45;5.95;;;2.13;;
61785;SDS011;47692;53.714;11.372;2022-08-02T11:37:12;2.97;;;0.82;;
61785;SDS011;47692;53.714;11.372;2022-08-02T11:39:37;5.40;;;0.90;;
61785;SDS011;47692;53.714;11.372;2022-08-02T11:42:03;3.72;;;0.82;;
61785;SDS011;47692;53.714;11.372;2022-08-02T11:44:29;1.75;;;0.60;;
61785;SDS011;47692;53.714;11.372;2022-08-02T11:47:03;5.85;;;0.85;;
61785;SDS011;47692;53.714;11.372;2022-08-02T11:49:31;3.92;;;1.10;;
61785;SDS011;47692;53.714;11.372;2022-08-02T11:51:57;2.95;;;0.80;;
61785;SDS011;47692;53.714;11.372;2022-08-02T11:54:32;3.60;;;0.70;;
61785;SDS011;47692;53.714;11.372;2022-08-02T11:57:08;4.97;;;1.10;;
61785;SDS011;47692;53.714;11.372;2022-08-02T11:59:37;2.90;;;0.82;;
61785;SDS011;47692;53.714;11.372;2022-08-02T12:02:04;1.48;;;0.70;;
61785;SDS011;47692;53.714;11.372;2022-08-02T12:04:30;3.80;;;1.00;;
61785;SDS011;47692;53.714;11.372;2022-08-02T12:06:57;4.65;;;1.25;;
61785;SDS011;47692;53.714;11.372;2022-08-02T12:09:23;4.65;;;1.17;;
61785;SDS011;47692;53.714;11.372;2022-08-02T12:11:51;2.30;;;0.88;;
61785;SDS011;47692;53.714;11.372;2022-08-02T12:14:16;5.53;;;1.02;;
61785;SDS011;47692;53.714;11.372;2022-08-02T12:16:42;4.63;;;1.13;;
61785;SDS011;47692;53.714;11.372;2022-08-02T12:19:26;1.85;;;0.73;;
61785;SDS011;47692;53.714;11.372;2022-08-02T12:24:40;3.67;;;1.17;;
61785;SDS011;47692;53.714;11.372;2022-08-02T12:27:07;4.47;;;1.20;;
61785;SDS011;47692;53.714;11.372;2022-08-02T12:29:39;4.32;;;0.77;;
61785;SDS011;47692;53.714;11.372;2022-08-02T12:32:06;5.85;;;1.08;;
61785;SDS011;47692;53.714;11.372;2022-08-02T12:34:33;5.00;;;1.45;;
61785;SDS011;47692;53.714;11.372;2022-08-02T12:37:00;3.38;;;0.93;;
61785;SDS011;47692;53.714;11.372;2022-08-02T12:39:34;5.00;;;0.85;;
61785;SDS011;47692;53.714;11.372;2022-08-02T12:42:05;3.30;;;1.13;;
61785;SDS011;47692;53.714;11.372;2022-08-02T12:44:32;3.30;;;0.95;;
61785;SDS011;47692;53.714;11.372;2022-08-02T12:47:01;2.85;;;1.00;;
61785;SDS011;47692;53.714;11.372;2022-08-02T12:49:32;3.15;;;1.17;;
61785;SDS011;47692;53.714;11.372;2022-08-02T12:51:57;5.57;;;1.27;;
61785;SDS011;47692;53.714;11.372;2022-08-02T12:54:24;4.78;;;1.20;;
61785;SDS011;47692;53.714;11.372;2022-08-02T12:57:13;7.82;;;1.25;;
61785;SDS011;47692;53.714;11.372;2022-08-02T12:59:40;2.92;;;1.17;;
61785;SDS011;47692;53.714;11.372;2022-08-02T13:02:07;3.28;;;1.10;;
61785;SDS011;47692;53.714;11.372;2022-08-02T13:04:35;3.03;;;1.02;;
61785;SDS011;47692;53.714;11.372;2022-08-02T13:07:01;3.90;;;1.45;;
61785;SDS011;47692;53.714;11.372;2022-08-02T13:09:27;3.80;;;1.33;;
61785;SDS011;47692;53.714;11.372;2022-08-02T13:11:59;4.85;;;1.50;;
61785;SDS011;47692;53.714;11.372;2022-08-02T13:14:24;5.25;;;1.25;;
61785;SDS011;47692;53.714;11.372;2022-08-02T13:16:49;6.50;;;1.38;;
61785;SDS011;47692;53.714;11.372;2022-08-02T13:19:15;5.20;;;1.40;;
61785;SDS011;47692;53.714;11.372;2022-08-02T13:21:41;3.95;;;1.17;;
61785;SDS011;47692;53.714;11.372;2022-08-02T13:24:07;2.85;;;1.00;;
61785;SDS011;47692;53.714;11.372;2022-08-02T13:26:35;3.70;;;1.30;;
61785;SDS011;47692;53.714;11.372;2022-08-02T13:29:00;3.97;;;1.20;;
61785;SDS011;47692;53.714;11.372;2022-08-02T13:31:26;4.85;;;1.35;;
61785;SDS011;47692;53.714;11.372;2022-08-02T13:33:51;6.45;;;1.55;;
61785;SDS011;47692;53.714;11.372;2022-08-02T13:36:16;5.95;;;1.38;;
61785;SDS011;47692;53.714;11.372;2022-08-02T13:38:42;2.63;;;1.30;;
61785;SDS011;47692;53.714;11.372;2022-08-02T13:41:07;4.43;;;1.30;;
61785;SDS011;47692;53.714;11.372;2022-08-02T13:43:32;4.88;;;1.85;;
61785;SDS011;47692;53.714;11.372;2022-08-02T13:45:58;5.40;;;1.50;;
61785;SDS011;47692;53.714;11.372;2022-08-02T13:48:24;3.42;;;1.25;;
61785;SDS011;47692;53.714;11.372;2022-08-02T13:50:49;3.03;;;1.45;;
61785;SDS011;47692;53.714;11.372;2022-08-02T13:53:14;5.00;;;1.58;;
61785;SDS011;47692;53.714;11.372;2022-08-02T13:55:40;7.22;;;1.60;;
61785;SDS011;47692;53.714;11.372;2022-08-02T13:58:05;3.25;;;1.20;;
61785;SDS011;47692;53.714;11.372;2022-08-02T14:00:30;6.05;;;1.60;;
61785;SDS011;47692;53.714;11.372;2022-08-02T14:02:56;4.95;;;1.55;;
61785;SDS011;47692;53.714;11.372;2022-08-02T14:05:21;5.38;;;1.60;;
61785;SDS011;47692;53.714;11.372;2022-08-02T14:07:53;5.60;;;1.63;;
61785;SDS011;47692;53.714;11.372;2022-08-02T14:10:19;5.43;;;1.60;;
61785;SDS011;47692;53.714;11.372;2022-08-02T14:12:44;7.35;;;2.10;;
61785;SDS011;47692;53.714;11.372;2022-08-02T14:15:10;6.47;;;2.13;;
61785;SDS011;47692;53.714;11.372;2022-08-02T14:17:35;6.15;;;1.70;;
61785;SDS011;47692;53.714;11.372;2022-08-02T14:20:00;3.10;;;1.30;;
61785;SDS011;47692;53.714;11.372;2022-08-02T14:22:26;2.80;;;1.60;;
61785;SDS011;47692;53.714;11.372;2022-08-02T14:24:52;2.63;;;1.63;;
61785;SDS011;47692;53.714;11.372;2022-08-02T14:27:18;3.38;;;1.35;;
61785;SDS011;47692;53.714;11.372;2022-08-02T14:29:43;4.90;;;1.73;;
61785;SDS011;47692;53.714;11.372;2022-08-02T14:32:08;4.43;;;1.33;;
61785;SDS011;47692;53.714;11.372;2022-08-02T14:34:34;3.72;;;1.42;;
61785;SDS011;47692;53.714;11.372;2022-08-02T14:36:59;4.20;;;1.63;;
61785;SDS011;47692;53.714;11.372;2022-08-02T14:39:24;4.97;;;1.80;;
61785;SDS011;47692;53.714;11.372;2022-08-02T14:41:50;4.53;;;1.50;;
61785;SDS011;47692;53.714;11.372;2022-08-02T14:44:15;3.25;;;1.40;;
61785;SDS011;47692;53.714;11.372;2022-08-02T14:46:40;4.07;;;1.40;;
61785;SDS011;47692;53.714;11.372;2022-08-02T14:49:07;6.03;;;1.50;;
61785;SDS011;47692;53.714;11.372;2022-08-02T14:51:34;2.20;;;1.15;;
61785;SDS011;47692;53.714;11.372;2022-08-02T14:54:02;4.68;;;1.40;;
61785;SDS011;47692;53.714;11.372;2022-08-02T14:56:29;5.13;;;1.33;;
61785;SDS011;47692;53.714;11.372;2022-08-02T14:58:56;3.13;;;1.38;;
61785;SDS011;47692;53.714;11.372;2022-08-02T15:01:21;2.28;;;1.17;;
61785;SDS011;47692;53.714;11.372;2022-08-02T15:03:47;4.00;;;1.40;;
61785;SDS011;47692;53.714;11.372;2022-08-02T15:06:12;4.38;;;1.48;;
61785;SDS011;47692;53.714;11.372;2022-08-02T15:08:38;2.60;;;1.52;;
61785;SDS011;47692;53.714;11.372;2022-08-02T15:11:03;3.67;;;1.30;;
61785;SDS011;47692;53.714;11.372;2022-08-02T15:13:29;4.88;;;1.70;;
61785;SDS011;47692;53.714;11.372;2022-08-02T15:15:54;2.40;;;1.20;;
61785;SDS011;47692;53.714;11.372;2022-08-02T15:18:19;4.05;;;1.23;;